Time;durP1;ratioP1;P1;durP2;ratioP2;P2;SDS_P1;SDS_P2;PMS_P1;PMS_P2;Temp;Humidity;BMP_temperature;BMP_pressure;BME280_temperature;BME280_humidity;BME280_pressure;Samples;Min_cycle;Max_cycle;Signal;HPM_P1;HPM_P2
2021/04/15 00:00:45;;;;;;;12.25;6.75;;;;;;;14.37;61.74;100965.64;1681774;83;21173;-48
2021/04/15 00:03:27;;;;;;;13.72;7.05;;;;;;;14.38;61.81;100965.61;1697290;84;21192;-53
2021/04/15 00:06:08;;;;;;;8.90;6.47;;;;;;;14.44;61.64;100956.23;1817508;79;23112;-47
2021/04/15 00:08:38;;;;;;;9.03;6.05;;;;;;;14.41;61.55;100956.33;1783519;80;21584;-49
2021/04/15 00:11:06;;;;;;;9.20;6.12;;;;;;;14.40;61.52;100962.48;1783823;80;21129;-54
2021/04/15 00:13:37;;;;;;;8.23;5.95;;;;;;;14.40;61.54;100955.94;1779940;80;22481;-51
2021/04/15 00:16:06;;;;;;;9.53;6.70;;;;;;;14.42;61.64;100952.81;1750518;81;21155;-48
2021/04/15 00:18:35;;;;;;;9.50;6.67;;;;;;;14.42;61.64;100952.81;1749166;81;21173;-48
2021/04/15 00:21:05;;;;;;;11.22;6.78;;;;;;;14.43;61.64;100953.20;1750169;81;21124;-50
2021/04/15 00:23:33;;;;;;;12.68;7.15;;;;;;;14.44;61.65;100956.23;1726710;83;21709;-51
2021/04/15 00:26:02;;;;;;;10.63;6.90;;;;;;;14.45;61.70;100950.08;1744422;81;21177;-50
2021/04/15 00:28:30;;;;;;;10.13;6.87;;;;;;;14.48;61.68;100949.98;1726542;83;21355;-49
2021/04/15 00:30:59;;;;;;;9.53;7.03;;;;;;;14.51;61.76;100948.55;1757937;81;21176;-48
2021/04/15 00:33:29;;;;;;;10.53;8.00;;;;;;;14.57;61.78;100944.41;1747466;81;21140;-48
2021/04/15 00:35:59;;;;;;;10.80;8.75;;;;;;;14.62;61.61;100946.42;1755860;81;21542;-51
2021/04/15 00:38:28;;;;;;;12.20;8.68;;;;;;;14.67;61.50;100951.03;1751757;81;21188;-51
2021/04/15 00:40:56;;;;;;;10.38;7.95;;;;;;;14.67;61.53;100948.41;1726649;83;21165;-51
2021/04/15 00:43:28;;;;;;;11.20;8.40;;;;;;;14.69;61.40;100952.31;1731763;83;21195;-48
2021/04/15 00:45:59;;;;;;;9.98;8.98;;;;;;;14.66;61.63;100949.78;1746295;81;21145;-51
2021/04/15 00:48:39;;;;;;;11.90;9.78;;;;;;;14.66;61.72;100955.02;1715439;83;21628;-50
2021/04/15 00:51:21;;;;;;;9.68;8.75;;;;;;;14.68;61.65;100955.37;1689073;84;21409;-51
2021/04/15 00:53:56;;;;;;;11.57;9.73;;;;;;;14.69;61.61;100951.83;1675589;85;21178;-48
2021/04/15 00:56:30;;;;;;;10.32;9.30;;;;;;;14.79;61.50;100943.66;1805708;79;22960;-50
2021/04/15 00:58:58;;;;;;;12.82;9.30;;;;;;;14.75;61.56;100940.75;1777512;80;21278;-50
2021/04/15 01:01:27;;;;;;;11.05;9.80;;;;;;;14.76;61.61;100941.13;1788207;80;21148;-51
2021/04/15 01:03:54;;;;;;;9.73;8.65;;;;;;;14.78;61.52;100935.37;1750653;80;21148;-48
2021/04/15 01:06:22;;;;;;;14.50;9.98;;;;;;;14.79;61.49;100934.48;1785686;80;21144;-50
2021/04/15 01:08:53;;;;;;;11.60;8.75;;;;;;;14.80;61.42;100925.70;1743941;81;21580;-51
2021/04/15 01:12:03;;;;;;;9.30;8.40;;;;;;;14.80;61.46;100925.70;1729216;81;21626;-48
2021/04/15 01:14:49;;;;;;;12.05;9.93;;;;;;;14.81;61.38;100924.81;1668064;86;21201;-53
2021/04/15 01:17:59;;;;;;;13.78;9.53;;;;;;;14.87;61.38;100923.27;1771580;79;23088;-49
2021/04/15 01:21:24;;;;;;;16.97;10.88;;;;;;;14.87;61.27;100916.27;1771745;79;23082;-51
2021/04/15 01:24:17;;;;;;;11.55;10.32;;;;;;;14.83;61.35;100919.06;1742948;82;21156;-49
2021/04/15 01:26:57;;;;;;;11.08;8.43;;;;;;;14.79;61.46;100916.15;1737825;82;21168;-50
2021/04/15 01:29:38;;;;;;;10.97;9.40;;;;;;;14.82;61.48;100917.36;1689398;84;21325;-52
2021/04/15 01:32:35;;;;;;;10.63;9.40;;;;;;;14.87;61.41;100907.55;1770339;79;23095;-49
2021/04/15 01:35:18;;;;;;;9.90;8.53;;;;;;;14.85;61.31;100906.76;1737048;82;21184;-49
2021/04/15 01:38:00;;;;;;;8.88;7.92;;;;;;;14.84;61.31;100911.61;1672405;85;21241;-49
2021/04/15 01:40:34;;;;;;;11.45;7.47;;;;;;;14.83;61.34;100908.58;1654168;86;21206;-51
2021/04/15 01:43:34;;;;;;;8.15;7.45;;;;;;;14.81;61.55;100903.85;1672212;86;21198;-50
2021/04/15 01:46:03;;;;;;;8.13;7.43;;;;;;;14.87;61.43;100904.94;1660560;86;21178;-53
2021/04/15 01:48:47;;;;;;;8.10;7.30;;;;;;;14.88;61.26;100907.48;1655015;87;21191;-48
2021/04/15 01:51:20;;;;;;;8.08;7.30;;;;;;;14.91;61.21;100906.53;1668675;86;21198;-54
2021/04/15 01:54:05;;;;;;;7.92;7.20;;;;;;;14.91;61.31;100906.08;1636570;86;21634;-50
2021/04/15 01:56:42;;;;;;;8.05;7.35;;;;;;;14.92;61.25;100901.22;1671971;86;21221;-48
2021/04/15 01:59:15;;;;;;;7.15;6.45;;;;;;;14.94;61.18;100901.19;1671888;86;21186;-51
2021/04/15 02:01:47;;;;;;;8.88;6.90;;;;;;;14.95;60.99;100906.37;1671867;86;21339;-51
2021/04/15 02:04:22;;;;;;;7.35;6.65;;;;;;;14.96;60.94;100906.75;1657894;86;21242;-49
2021/04/15 02:07:04;;;;;;;9.15;6.78;;;;;;;15.01;60.94;100901.34;1771630;79;23111;-49
2021/04/15 02:09:32;;;;;;;9.48;8.00;;;;;;;14.97;60.82;100907.61;1728582;82;21148;-51
2021/04/15 02:12:08;;;;;;;10.00;6.83;;;;;;;14.97;60.76;100901.05;1741094;82;21161;-49
2021/04/15 02:14:36;;;;;;;10.50;7.60;;;;;;;14.97;60.69;100906.30;1699645;82;21144;-48
2021/04/15 02:17:07;;;;;;;11.85;7.37;;;;;;;14.96;60.75;100897.58;1738133;82;21286;-50
2021/04/15 02:19:43;;;;;;;10.48;7.00;;;;;;;14.96;60.74;100900.67;1740063;82;21310;-48
2021/04/15 02:22:41;;;;;;;13.80;7.70;;;;;;;14.98;60.79;100897.54;1673843;85;21163;-50
2021/04/15 02:25:21;;;;;;;11.97;6.70;;;;;;;14.99;60.75;100895.30;1673247;85;21685;-52
2021/04/15 02:27:59;;;;;;;9.83;6.37;;;;;;;15.00;60.68;100898.34;1672701;85;21223;-53
2021/04/15 02:30:30;;;;;;;10.82;7.37;;;;;;;15.01;60.64;100898.72;1672160;85;21221;-51
2021/04/15 02:33:24;;;;;;;9.85;6.92;;;;;;;15.00;60.64;100895.72;1678677;85;21179;-49
2021/04/15 02:36:02;;;;;;;9.10;7.30;;;;;;;15.06;60.58;100895.48;1771652;79;23532;-50
2021/04/15 02:38:37;;;;;;;10.35;6.80;;;;;;;15.00;60.58;100899.65;1681445;84;21345;-49
2021/04/15 02:41:06;;;;;;;8.53;6.17;;;;;;;15.01;60.54;100900.89;1678824;84;21275;-53
2021/04/15 02:43:42;;;;;;;7.50;6.08;;;;;;;15.00;60.59;100906.20;1679780;84;21164;-52
2021/04/15 02:46:15;;;;;;;7.72;7.03;;;;;;;15.00;60.66;100906.20;1678218;84;21265;-52
2021/04/15 02:48:50;;;;;;;8.60;7.87;;;;;;;15.04;60.70;100911.28;1810975;79;23555;-49
2021/04/15 02:51:26;;;;;;;7.80;7.20;;;;;;;15.00;60.61;100911.44;1782901;80;21128;-50
2021/04/15 02:53:59;;;;;;;8.88;7.47;;;;;;;15.00;60.56;100914.06;1661431;86;21209;-52
2021/04/15 02:56:43;;;;;;;8.00;7.30;;;;;;;15.04;60.58;100910.41;1816355;79;23081;-48
2021/04/15 02:59:14;;;;;;;9.08;8.28;;;;;;;14.98;60.55;100919.34;1750091;81;21179;-52
2021/04/15 03:01:47;;;;;;;8.78;8.00;;;;;;;14.98;60.58;100921.95;1745567;81;21161;-48
2021/04/15 03:04:19;;;;;;;8.00;7.40;;;;;;;14.98;60.52;100918.50;1750948;81;21203;-51
2021/04/15 03:06:46;;;;;;;9.07;8.27;;;;;;;14.96;60.56;100917.70;1749117;81;21183;-52
2021/04/15 03:09:14;;;;;;;9.18;8.28;;;;;;;14.96;60.58;100920.33;1723556;81;21245;-48
2021/04/15 03:12:00;;;;;;;9.15;8.28;;;;;;;14.95;60.60;100926.46;1751287;81;21146;-51
2021/04/15 03:14:32;;;;;;;9.53;8.63;;;;;;;14.96;60.54;100933.43;1722234;81;21183;-50
2021/04/15 03:17:04;;;;;;;9.58;8.78;;;;;;;14.94;60.54;100928.22;1752043;81;21292;-51
2021/04/15 03:19:38;;;;;;;8.25;7.45;;;;;;;14.94;60.63;100932.63;1747546;81;21620;-52
2021/04/15 03:22:19;;;;;;;10.93;8.83;;;;;;;14.96;60.74;100936.05;1814918;79;23076;-50
2021/04/15 03:24:50;;;;;;;8.85;7.92;;;;;;;14.90;60.75;100937.59;1722232;82;21246;-51
2021/04/15 03:27:43;;;;;;;9.45;8.53;;;;;;;14.89;60.79;100938.48;1722522;83;21138;-51
2021/04/15 03:30:15;;;;;;;9.03;7.87;;;;;;;14.89;60.81;100935.41;1711273;83;21167;-51
2021/04/15 03:33:05;;;;;;;9.20;8.48;;;;;;;14.93;60.86;100942.70;1817527;79;22966;-48
2021/04/15 03:35:37;;;;;;;9.38;8.48;;;;;;;14.88;60.91;100948.58;1786889;80;21176;-52
2021/04/15 03:38:19;;;;;;;9.33;8.43;;;;;;;14.91;61.03;100942.77;1810212;79;22977;-49
2021/04/15 03:40:51;;;;;;;10.95;8.40;;;;;;;14.86;61.04;100954.33;1693505;84;21644;-49
2021/04/15 03:43:34;;;;;;;10.20;9.10;;;;;;;14.91;61.11;100952.37;1797364;79;28400;-49
2021/04/15 03:46:19;;;;;;;10.32;9.25;;;;;;;14.85;61.29;100959.16;1748287;80;28775;-50
2021/04/15 03:48:53;;;;;;;10.13;9.05;;;;;;;15.00;61.02;100961.23;1779666;80;21156;-50
2021/04/15 03:51:38;;;;;;;11.25;10.15;;;;;;;15.13;60.74;100961.16;1804537;79;23543;-51
2021/04/15 03:54:11;;;;;;;12.13;10.50;;;;;;;15.09;60.75;100971.36;1743978;81;21175;-49
2021/04/15 03:56:57;;;;;;;12.05;10.85;;;;;;;15.14;60.70;100975.98;1811855;79;23510;-52
2021/04/15 03:59:39;;;;;;;11.83;10.63;;;;;;;15.09;60.69;100980.53;1717521;82;21173;-48
2021/04/15 04:02:18;;;;;;;10.60;9.60;;;;;;;15.06;60.75;100981.97;1714747;83;21633;-50
2021/04/15 04:04:56;;;;;;;10.05;9.05;;;;;;;15.10;60.80;100987.50;1801822;79;23106;-51
2021/04/15 04:07:31;;;;;;;8.33;7.53;;;;;;;15.04;60.83;100989.03;1783556;80;21588;-47
2021/04/15 04:10:20;;;;;;;4.33;3.92;;;;;;;15.02;60.87;100990.86;1780416;80;21145;-51
2021/04/15 04:13:17;;;;;;;1.50;1.40;;;;;;;14.98;60.71;100997.11;1737733;81;21141;-48
2021/04/15 04:15:49;;;;;;;1.80;1.65;;;;;;;14.94;60.65;100998.14;1742810;81;21616;-48
2021/04/15 04:18:22;;;;;;;0.80;0.80;;;;;;;14.88;60.71;100998.36;1741676;81;21177;-49
2021/04/15 04:20:55;;;;;;;0.70;0.70;;;;;;;14.82;60.65;101003.34;1729176;83;21169;-47
2021/04/15 04:23:53;;;;;;;0.93;0.82;;;;;;;14.79;60.64;101006.53;1693648;83;21187;-48
2021/04/15 04:26:34;;;;;;;0.88;0.80;;;;;;;14.79;60.53;101006.53;1807292;79;22963;-49
2021/04/15 04:29:20;;;;;;;1.27;1.17;;;;;;;14.73;60.47;101011.98;1775893;80;21172;-50
2021/04/15 04:31:49;;;;;;;1.95;1.62;;;;;;;14.71;60.45;101013.80;1783765;80;21179;-51
2021/04/15 04:34:18;;;;;;;2.00;1.90;;;;;;;14.66;60.25;101012.19;1747066;80;21184;-50
2021/04/15 04:36:48;;;;;;;2.05;1.90;;;;;;;14.63;60.30;101010.14;1777887;80;21152;-50
2021/04/15 04:39:16;;;;;;;2.55;2.35;;;;;;;14.58;60.15;101016.84;1773875;80;21192;-53
2021/04/15 04:42:09;;;;;;;2.62;2.42;;;;;;;14.54;60.15;101015.23;1775940;80;21187;-52
2021/04/15 04:44:46;;;;;;;2.47;2.27;;;;;;;14.49;60.21;101018.45;1779953;80;21148;-51
2021/04/15 04:47:45;;;;;;;2.35;2.15;;;;;;;14.45;60.42;101014.66;1770532;80;21117;-48
2021/04/15 04:50:24;;;;;;;3.52;3.22;;;;;;;14.43;60.43;101018.66;1697947;84;21153;-52
2021/04/15 04:53:03;;;;;;;3.55;3.05;;;;;;;14.45;60.37;101020.77;1771659;79;23542;-51
2021/04/15 04:55:43;;;;;;;2.90;2.70;;;;;;;14.38;60.32;101019.28;1735768;82;21191;-50
2021/04/15 04:58:16;;;;;;;3.47;3.17;;;;;;;14.35;60.40;101029.84;1740765;82;21145;-48
2021/04/15 05:00:51;;;;;;;3.20;3.00;;;;;;;14.31;60.51;101032.15;1737055;81;21200;-48
2021/04/15 05:03:24;;;;;;;3.30;3.00;;;;;;;14.31;60.53;101030.84;1742495;82;21148;-47
2021/04/15 05:06:10;;;;;;;3.70;3.40;;;;;;;14.28;60.49;101040.09;1740061;82;21215;-49
2021/04/15 05:09:26;;;;;;;3.50;3.20;;;;;;;14.27;60.47;101041.42;1735559;82;21164;-51
2021/04/15 05:11:55;;;;;;;3.20;2.90;;;;;;;14.24;60.29;101042.37;1669991;84;21590;-48
2021/04/15 05:14:25;;;;;;;3.17;2.95;;;;;;;14.24;60.30;101044.98;1664727;84;21182;-47
2021/04/15 05:17:26;;;;;;;3.58;3.27;;;;;;;14.23;60.34;101045.05;1673615;85;21606;-51
2021/04/15 05:20:11;;;;;;;3.90;3.55;;;;;;;14.19;60.47;101045.60;1687901;84;21242;-49
2021/04/15 05:23:02;;;;;;;3.22;3.02;;;;;;;14.20;60.50;101043.37;1807710;78;21250;-52
2021/04/15 05:26:13;;;;;;;3.20;2.83;;;;;;;14.14;60.65;101044.02;1769096;80;21140;-48
2021/04/15 05:28:41;;;;;;;3.15;2.87;;;;;;;14.12;60.76;101049.75;1775378;80;21112;-51
2021/04/15 05:31:12;;;;;;;3.47;3.20;;;;;;;14.12;60.86;101062.83;1765992;80;21172;-47
2021/04/15 05:33:40;;;;;;;4.42;4.03;;;;;;;14.13;60.89;101069.35;1777595;80;21164;-49
2021/04/15 05:36:21;;;;;;;3.67;3.37;;;;;;;14.13;60.87;101059.33;1748594;80;21139;-51
2021/04/15 05:38:52;;;;;;;3.30;3.00;;;;;;;14.12;60.95;101068.94;1771013;80;21497;-46
2021/04/15 05:41:45;;;;;;;3.57;3.27;;;;;;;14.13;60.93;101061.95;1774663;80;21108;-52
2021/04/15 05:44:26;;;;;;;4.08;3.77;;;;;;;14.11;60.97;101071.16;1692140;83;21583;-51
2021/04/15 05:47:00;;;;;;;4.20;3.90;;;;;;;14.17;61.04;101076.64;1801274;79;38642;-49
2021/04/15 05:49:35;;;;;;;4.22;3.92;;;;;;;14.17;60.98;101090.59;1765039;80;21632;-48
2021/04/15 05:52:23;;;;;;;4.47;4.08;;;;;;;14.23;60.67;101083.00;1668419;83;21173;-48
2021/04/15 05:54:53;;;;;;;4.08;3.75;;;;;;;14.23;60.56;101085.17;1700417;83;21208;-49
2021/04/15 05:57:26;;;;;;;4.35;3.90;;;;;;;14.24;60.57;101084.25;1706438;83;21164;-51
2021/04/15 06:00:21;;;;;;;4.20;3.90;;;;;;;14.22;60.72;101086.05;1706317;83;21200;-47
2021/04/15 06:02:55;;;;;;;4.12;3.75;;;;;;;14.26;60.77;101085.05;1716129;83;21330;-49
2021/04/15 06:05:30;;;;;;;3.98;3.67;;;;;;;14.27;60.65;101093.77;1704681;83;21184;-49
2021/04/15 06:08:04;;;;;;;4.12;3.72;;;;;;;14.25;60.53;101093.83;1702424;83;21216;-49
2021/04/15 06:10:35;;;;;;;4.30;3.90;;;;;;;14.25;60.51;101100.38;1705059;83;21204;-48
2021/04/15 06:13:27;;;;;;;4.12;3.77;;;;;;;14.26;60.44;101100.76;1706864;83;21172;-50
2021/04/15 06:16:01;;;;;;;4.47;4.08;;;;;;;14.26;60.34;101102.55;1709878;83;21298;-51
2021/04/15 06:18:45;;;;;;;4.55;4.15;;;;;;;14.23;60.30;101108.72;1679397;85;21197;-51
2021/04/15 06:21:23;;;;;;;4.33;3.92;;;;;;;14.15;60.38;101109.42;1711267;83;21180;-52
2021/04/15 06:23:59;;;;;;;4.22;3.90;;;;;;;14.12;60.43;101113.86;1643354;86;21148;-51
2021/04/15 06:26:49;;;;;;;4.47;4.05;;;;;;;14.06;60.43;101116.22;1702120;83;21178;-51
2021/04/15 06:29:40;;;;;;;4.50;4.10;;;;;;;14.04;60.55;101123.27;1696024;83;21677;-49
2021/04/15 06:32:20;;;;;;;5.23;4.83;;;;;;;14.08;60.66;101132.73;1754951;79;31723;-51
2021/04/15 06:34:48;;;;;;;4.30;4.00;;;;;;;14.06;60.61;101130.61;1741028;82;21137;-47
2021/04/15 06:37:22;;;;;;;4.17;3.85;;;;;;;14.13;60.57;101133.47;1739826;82;21104;-50
2021/04/15 06:40:29;;;;;;;4.20;3.90;;;;;;;14.17;60.48;101135.09;1733994;82;21144;-50
2021/04/15 06:43:12;;;;;;;4.90;4.35;;;;;;;14.15;60.25;101136.89;1751238;82;21184;-50
2021/04/15 06:46:08;;;;;;;4.62;4.22;;;;;;;14.09;60.30;101142.31;1745075;82;21282;-50
2021/04/15 06:49:29;;;;;;;4.37;4.08;;;;;;;14.03;60.37;101143.81;1732829;82;21169;-51
2021/04/15 06:52:34;;;;;;;4.47;4.08;;;;;;;13.98;60.36;101148.75;1746831;82;21169;-50
2021/04/15 06:55:41;;;;;;;4.10;3.55;;;;;;;13.88;60.75;101160.81;1735126;82;21176;-49
2021/04/15 06:58:27;;;;;;;4.25;3.87;;;;;;;13.81;60.99;101159.70;1733288;82;21310;-50
2021/04/15 07:01:36;;;;;;;4.10;3.70;;;;;;;13.74;61.14;101160.79;1747172;82;21151;-47
2021/04/15 07:04:10;;;;;;;4.92;4.53;;;;;;;13.71;61.44;101173.49;1742040;82;21604;-50
2021/04/15 07:07:03;;;;;;;4.40;4.00;;;;;;;13.75;61.56;101176.88;1742100;82;21302;-46
2021/04/15 07:09:56;;;;;;;4.10;3.77;;;;;;;13.71;61.71;101176.55;1736678;82;21707;-47
2021/04/15 07:13:04;;;;;;;3.80;3.50;;;;;;;13.70;61.91;101179.61;1729761;82;21152;-47
2021/04/15 07:15:40;;;;;;;3.98;3.60;;;;;;;13.70;61.96;101183.53;1741781;82;21136;-50
2021/04/15 07:18:56;;;;;;;3.60;3.30;;;;;;;13.69;62.01;101187.06;1724728;81;21200;-48
2021/04/15 07:22:17;;;;;;;4.03;3.47;;;;;;;13.71;62.17;101189.63;1730651;81;21131;-46
2021/04/15 07:25:38;;;;;;;3.45;3.22;;;;;;;13.77;62.02;101184.23;1802796;79;22549;-49
2021/04/15 07:28:18;;;;;;;3.90;3.60;;;;;;;13.75;62.11;101197.80;1785265;80;21600;-50
2021/04/15 07:31:36;;;;;;;3.50;3.20;;;;;;;13.77;62.16;101201.23;1724287;81;21162;-48
2021/04/15 07:34:19;;;;;;;3.00;2.80;;;;;;;13.80;62.19;101200.72;1709910;83;21346;-47
2021/04/15 07:37:19;;;;;;;3.25;3.05;;;;;;;13.84;61.98;101210.19;1712057;83;21160;-51
2021/04/15 07:40:20;;;;;;;3.62;3.37;;;;;;;13.85;61.89;101211.89;1714897;83;21597;-50
2021/04/15 07:43:21;;;;;;;3.27;3.08;;;;;;;13.87;61.89;101209.22;1754601;81;21730;-51
2021/04/15 07:46:04;;;;;;;3.37;3.08;;;;;;;13.90;62.03;101211.77;1723761;81;21168;-50
2021/04/15 07:49:03;;;;;;;3.70;3.40;;;;;;;13.89;61.95;101217.89;1717600;83;21207;-53
2021/04/15 07:51:42;;;;;;;3.33;3.12;;;;;;;13.90;61.94;101219.61;1718741;83;21163;-50
2021/04/15 07:54:55;;;;;;;3.40;3.20;;;;;;;13.93;61.94;101223.44;1710809;83;21553;-49
2021/04/15 07:57:50;;;;;;;4.10;3.80;;;;;;;13.94;61.83;101225.17;1735706;82;21159;-49
2021/04/15 08:01:12;;;;;;;4.35;3.95;;;;;;;13.99;61.80;101221.98;1743895;81;21565;-48
2021/04/15 08:04:13;;;;;;;;;;;;;;;14.03;61.49;101228.84;1696874;84;21172;-47
2021/04/15 08:07:12;;;;;;;4.83;4.42;;;;;;;14.06;61.33;101227.44;1683660;84;20255;-47
2021/04/15 08:10:18;;;;;;;4.17;3.77;;;;;;;14.07;61.18;101233.09;1696515;84;21195;-50
2021/04/15 08:13:04;;;;;;;4.28;3.98;;;;;;;14.08;61.13;101245.26;1686496;84;21159;-49
2021/04/15 08:16:05;;;;;;;4.40;4.00;;;;;;;14.09;61.05;101246.98;1685507;84;21165;-50
2021/04/15 08:18:50;;;;;;;4.00;3.70;;;;;;;14.09;61.04;101248.73;1700782;84;21266;-46
2021/04/15 08:21:39;;;;;;;4.05;3.75;;;;;;;14.09;60.91;101246.98;1693071;84;21791;-48
2021/04/15 08:24:43;;;;;;;4.47;4.10;;;;;;;14.08;61.02;101242.64;1665528;84;21160;-51
2021/04/15 08:27:33;;;;;;;4.47;4.08;;;;;;;14.09;61.12;101249.61;1692289;84;21158;-49
2021/04/15 08:30:28;;;;;;;4.22;3.83;;;;;;;14.14;61.01;101250.31;1692899;84;21167;-49
2021/04/15 08:33:25;;;;;;;3.62;3.42;;;;;;;14.19;60.96;101258.05;1681672;84;21211;-50
2021/04/15 08:36:25;;;;;;;4.45;4.15;;;;;;;14.24;61.03;101258.31;1714720;82;21620;-51
2021/04/15 08:39:24;;;;;;;4.45;4.05;;;;;;;14.31;60.94;101259.89;1723558;82;21588;-48
2021/04/15 08:42:22;;;;;;;5.20;3.83;;;;;;;14.39;61.02;101267.07;1729202;82;21138;-49
2021/04/15 08:45:15;;;;;;;4.22;3.83;;;;;;;14.50;60.82;101275.48;1726764;82;21152;-49
2021/04/15 08:48:13;;;;;;;4.37;3.98;;;;;;;14.66;60.49;101270.63;1812814;79;22994;-51
2021/04/15 08:51:10;;;;;;;4.12;3.83;;;;;;;14.68;60.26;101276.23;1759446;80;21165;-49
2021/04/15 08:54:22;;;;;;;4.67;4.30;;;;;;;14.77;60.18;101270.31;1747190;81;21593;-47
2021/04/15 08:57:10;;;;;;;4.63;4.13;;;;;;;14.85;59.90;101269.62;1712201;83;21311;-47
2021/04/15 09:00:25;;;;;;;4.95;4.53;;;;;;;14.93;59.79;101278.09;1718626;83;21663;-52
2021/04/15 09:03:28;;;;;;;4.97;4.58;;;;;;;14.97;59.51;101282.33;1725917;83;21343;-53
2021/04/15 09:06:22;;;;;;;4.37;4.03;;;;;;;14.98;59.10;101280.13;1754093;81;21168;-50
2021/04/15 09:09:26;;;;;;;5.25;4.70;;;;;;;14.97;59.52;101286.27;1674451;85;21759;-53
2021/04/15 09:12:06;;;;;;;4.10;3.80;;;;;;;15.04;59.39;101285.18;1637099;85;21615;-48
2021/04/15 09:15:04;;;;;;;5.10;4.70;;;;;;;15.06;58.91;101292.09;1678785;85;21243;-47
2021/04/15 09:18:01;;;;;;;5.72;5.28;;;;;;;15.12;58.61;101292.34;1818992;77;23024;-53
2021/04/15 09:20:35;;;;;;;;;;;;;;;15.10;58.60;101298.09;1814878;77;21553;-46
2021/04/15 09:23:31;;;;;;;5.40;5.00;;;;;;;15.14;58.28;101301.02;1817938;77;20291;-50
2021/04/15 09:26:29;;;;;;;5.83;5.33;;;;;;;15.14;58.12;101307.57;1701063;83;21548;-47
2021/04/15 09:29:18;;;;;;;5.20;4.70;;;;;;;15.12;57.99;101312.00;1730927;81;21600;-48
2021/04/15 09:31:55;;;;;;;6.25;5.72;;;;;;;15.06;57.64;101313.51;1725805;83;21258;-49
2021/04/15 09:34:50;;;;;;;5.37;4.97;;;;;;;14.99;57.52;101326.38;1701102;83;21276;-47
2021/04/15 09:38:01;;;;;;;6.00;5.50;;;;;;;14.96;57.42;101330.42;1700240;83;21215;-50
2021/04/15 09:41:24;;;;;;;6.80;6.30;;;;;;;14.92;57.03;101319.63;1781884;79;28669;-47
2021/04/15 09:44:04;;;;;;;6.03;5.53;;;;;;;14.87;57.24;101329.38;1761309;80;21140;-46
2021/04/15 09:46:58;;;;;;;6.58;6.00;;;;;;;14.89;56.98;101330.19;1761366;80;21191;-48
2021/04/15 09:49:57;;;;;;;6.53;5.92;;;;;;;14.89;57.19;101338.05;1766084;80;21561;-50
2021/04/15 09:52:55;;;;;;;6.58;5.95;;;;;;;14.88;56.89;101338.97;1768568;80;21148;-47
2021/04/15 09:55:54;;;;;;;6.10;5.50;;;;;;;14.88;57.04;101338.97;1761322;80;21128;-51
2021/04/15 09:58:51;;;;;;;12.70;6.55;;;;;;;14.87;56.77;101339.86;1767572;80;21131;-47
2021/04/15 10:01:27;;;;;;;5.70;5.30;;;;;;;14.82;56.67;101349.64;1762252;80;21120;-51
2021/04/15 10:04:08;;;;;;;6.62;6.12;;;;;;;14.78;56.43;101347.53;1770415;80;21132;-52
2021/04/15 10:06:53;;;;;;;7.03;6.30;;;;;;;14.75;56.30;101345.47;1773327;80;21144;-50
2021/04/15 10:09:52;;;;;;;6.67;6.17;;;;;;;14.75;56.72;101345.47;1806514;79;22948;-49
2021/04/15 10:12:52;;;;;;;7.33;6.72;;;;;;;14.68;56.51;101344.34;1721349;83;21605;-47
2021/04/15 10:15:35;;;;;;;9.00;6.08;;;;;;;14.63;56.61;101344.91;1718785;83;21172;-51
2021/04/15 10:18:27;;;;;;;6.33;5.83;;;;;;;14.66;56.67;101352.70;1715136;83;21386;-50
2021/04/15 10:21:20;;;;;;;7.05;6.22;;;;;;;14.68;56.25;101350.89;1712695;83;21144;-50
2021/04/15 10:24:06;;;;;;;7.53;6.92;;;;;;;14.68;56.30;101356.13;1720024;83;21152;-49
2021/04/15 10:26:48;;;;;;;7.47;6.78;;;;;;;14.65;56.33;101358.82;1704939;83;21160;-48
2021/04/15 10:29:33;;;;;;;6.72;6.03;;;;;;;14.68;56.01;101362.67;1710152;83;21168;-51
2021/04/15 10:32:16;;;;;;;6.45;5.78;;;;;;;14.67;55.97;101366.66;1718947;83;21164;-46
2021/04/15 10:35:17;;;;;;;6.03;5.53;;;;;;;14.65;56.08;101365.84;1801500;77;22999;-49
2021/04/15 10:38:30;;;;;;;6.95;6.33;;;;;;;14.57;56.25;101364.73;1777853;78;21131;-50
2021/04/15 10:41:18;;;;;;;7.58;6.87;;;;;;;14.61;56.28;101372.91;1766609;78;21152;-47
2021/04/15 10:44:22;;;;;;;6.92;6.42;;;;;;;14.64;55.91;101371.97;1745531;81;21181;-47
2021/04/15 10:47:28;;;;;;;6.78;6.22;;;;;;;14.62;56.13;101379.87;1751465;81;21769;-50
2021/04/15 10:50:44;;;;;;;7.85;7.25;;;;;;;14.67;56.33;101371.90;1662432;84;21365;-47
2021/04/15 10:53:36;;;;;;;6.80;6.08;;;;;;;14.66;56.36;101381.51;1696006;83;21297;-49
2021/04/15 10:56:10;;;;;;;7.62;7.05;;;;;;;14.69;55.88;101374.86;1701197;83;21147;-50
2021/04/15 10:58:45;;;;;;;7.72;7.12;;;;;;;14.78;55.84;101371.56;1771411;79;23061;-47
2021/04/15 11:01:38;;;;;;;8.35;7.70;;;;;;;14.78;55.64;101375.05;1716072;82;21168;-47
2021/04/15 11:04:17;;;;;;;7.67;6.80;;;;;;;14.84;55.57;101376.65;1731537;82;21128;-47
2021/04/15 11:06:53;;;;;;;8.53;7.72;;;;;;;14.84;55.42;101378.80;1735816;82;21175;-47
2021/04/15 11:09:38;;;;;;;8.55;7.70;;;;;;;14.86;55.80;101386.63;1740415;82;21208;-49
2021/04/15 11:12:19;;;;;;;8.70;8.00;;;;;;;14.89;55.74;101379.98;1734191;82;21258;-50
2021/04/15 11:15:03;;;;;;;8.57;7.87;;;;;;;14.99;55.99;101379.66;1735964;82;21176;-48
2021/04/15 11:17:41;;;;;;;8.30;7.70;;;;;;;15.11;56.12;101383.66;1708361;83;21176;-50
2021/04/15 11:20:24;;;;;;;7.10;6.60;;;;;;;15.19;55.76;101381.66;1620174;87;21179;-51
2021/04/15 11:23:17;;;;;;;7.33;6.80;;;;;;;15.30;55.69;101371.72;1644458;87;21361;-48
2021/04/15 11:25:52;;;;;;;7.33;6.72;;;;;;;15.51;55.62;101380.26;1807070;79;21265;-48
2021/04/15 11:28:31;;;;;;;7.47;6.87;;;;;;;15.57;54.94;101381.38;1760550;80;21195;-51
2021/04/15 11:31:12;;;;;;;8.28;7.58;;;;;;;15.63;54.74;101374.61;1760717;80;21707;-47
2021/04/15 11:33:45;;;;;;;7.75;7.05;;;;;;;15.68;54.98;101385.83;1767708;80;21144;-48
2021/04/15 11:36:25;;;;;;;7.67;7.08;;;;;;;15.74;54.28;101380.38;1767444;80;21147;-48
2021/04/15 11:39:12;;;;;;;7.62;7.03;;;;;;;15.75;54.29;101372.89;1769260;81;21152;-52
2021/04/15 11:41:56;;;;;;;7.20;6.60;;;;;;;15.77;54.36;101378.95;1763113;81;21612;-51
2021/04/15 11:44:40;;;;;;;8.50;7.80;;;;;;;15.81;53.78;101377.07;1769201;81;21105;-50
2021/04/15 11:47:16;;;;;;;7.80;7.20;;;;;;;15.85;53.77;101376.92;1768236;81;21187;-49
2021/04/15 11:49:51;;;;;;;8.63;7.92;;;;;;;15.93;53.30;101376.69;1811110;79;23048;-47
2021/04/15 11:52:33;;;;;;;9.33;8.58;;;;;;;15.91;53.22;101380.65;1751252;80;21100;-52
2021/04/15 11:55:35;;;;;;;7.62;7.03;;;;;;;15.92;53.52;101382.38;1777429;80;21140;-48
2021/04/15 11:58:09;;;;;;;8.70;8.00;;;;;;;15.92;53.06;101381.07;1771619;80;21140;-46
2021/04/15 12:00:39;;;;;;;7.95;7.25;;;;;;;15.93;53.39;101387.19;1715154;83;21181;-49
2021/04/15 12:03:12;;;;;;;8.43;7.83;;;;;;;15.95;53.26;101385.37;1619767;87;21169;-49
2021/04/15 12:05:48;;;;;;;7.87;7.28;;;;;;;16.00;53.29;101386.05;1827523;77;22794;-51
2021/04/15 12:08:30;;;;;;;8.53;7.92;;;;;;;15.97;52.75;101388.31;1789135;78;21203;-48
2021/04/15 12:11:16;;;;;;;9.08;8.38;;;;;;;15.96;52.61;101387.93;1818446;77;21141;-48
2021/04/15 12:13:55;;;;;;;8.43;7.72;;;;;;;15.94;52.43;101389.75;1763606;80;21149;-52
2021/04/15 12:16:36;;;;;;;8.18;7.47;;;;;;;15.88;52.13;101392.58;1744205;80;21179;-50
2021/04/15 12:19:44;;;;;;;9.15;8.35;;;;;;;15.84;52.38;101389.66;1773746;79;21179;-52
2021/04/15 12:22:47;;;;;;;9.55;8.85;;;;;;;15.82;52.71;101389.30;1760323;80;21114;-47
2021/04/15 12:25:19;;;;;;;9.90;8.90;;;;;;;15.86;52.69;101386.53;1769122;79;21104;-46
2021/04/15 12:27:52;;;;;;;9.25;8.58;;;;;;;15.88;52.48;101388.64;1742717;79;21269;-47
2021/04/15 12:30:25;;;;;;;10.13;9.28;;;;;;;15.88;52.15;101391.27;1754522;79;21159;-47
2021/04/15 12:33:05;;;;;;;8.38;7.78;;;;;;;15.88;52.12;101389.95;1754987;81;21958;-47
2021/04/15 12:36:02;;;;;;;7.70;7.10;;;;;;;15.88;52.39;101389.95;1761404;81;21909;-48
2021/04/15 12:38:41;;;;;;;8.48;7.87;;;;;;;15.88;52.19;101393.89;1709748;83;21227;-46
2021/04/15 12:41:11;;;;;;;8.53;7.92;;;;;;;15.85;51.93;101384.80;1692966;83;21381;-46
2021/04/15 12:43:44;;;;;;;8.50;7.90;;;;;;;15.84;52.33;101383.09;1707894;83;21159;-46